createdAt,value
2019-04-27T00:02:01.285Z,9.13
2019-04-27T00:04:34.343Z,8.92
2019-04-27T00:07:07.307Z,8.78
2019-04-27T00:09:43.162Z,8.89
2019-04-27T00:12:16.492Z,8.93
2019-04-27T00:14:54.407Z,8.93
2019-04-27T00:17:42.499Z,9.00
2019-04-27T00:19:59.244Z,9.00
2019-04-27T00:22:33.477Z,9.00
2019-04-27T00:25:07.010Z,8.98
2019-04-27T00:27:40.078Z,8.87
2019-04-27T00:30:13.824Z,8.81
2019-04-27T00:32:47.033Z,8.90
2019-04-27T00:35:19.924Z,8.90
2019-04-27T00:37:53.141Z,8.89
2019-04-27T00:40:26.230Z,8.93
2019-04-27T00:42:59.512Z,9.02
2019-04-27T00:45:33.523Z,9.05
2019-04-27T00:48:06.742Z,9.03
2019-04-27T00:50:39.675Z,9.06
2019-04-27T00:53:13.384Z,9.11
2019-04-27T00:55:46.949Z,9.11
2019-04-27T00:58:19.970Z,9.09
2019-04-27T01:00:53.986Z,9.04
2019-04-27T01:03:27.122Z,9.00
2019-04-27T01:06:00.245Z,8.95
2019-04-27T01:08:34.240Z,8.95
2019-04-27T01:11:07.269Z,8.91
2019-04-27T01:13:40.163Z,9.03
2019-04-27T01:16:15.643Z,8.93
2019-04-27T01:18:48.909Z,8.98
2019-04-27T01:21:22.007Z,8.84
2019-04-27T01:23:55.263Z,8.92
2019-04-27T01:26:28.633Z,8.91
2019-04-27T01:29:02.007Z,8.85
2019-04-27T01:31:35.041Z,8.82
2019-04-27T01:34:09.251Z,8.89
2019-04-27T01:36:42.211Z,8.89
2019-04-27T01:39:15.171Z,8.78
2019-04-27T01:41:49.164Z,8.78
2019-04-27T01:44:22.300Z,8.78
2019-04-27T01:46:55.217Z,8.73
2019-04-27T01:49:29.505Z,8.68
2019-04-27T01:52:03.007Z,8.68
2019-04-27T01:54:35.983Z,8.57
2019-04-27T01:57:10.345Z,8.57
2019-04-27T01:59:43.594Z,8.67
2019-04-27T02:02:19.079Z,8.60
2019-04-27T02:04:52.241Z,8.60
2019-04-27T02:07:25.188Z,8.58
2019-04-27T02:09:58.890Z,8.55
2019-04-27T02:12:31.893Z,8.65
2019-04-27T02:15:05.565Z,8.66
2019-04-27T02:17:38.683Z,8.66
2019-04-27T02:20:12.024Z,8.60
2019-04-27T02:22:44.889Z,8.53
2019-04-27T02:25:18.961Z,8.50
2019-04-27T02:27:52.821Z,8.32
2019-04-27T02:30:25.813Z,8.32
2019-04-27T02:32:59.329Z,8.22
2019-04-27T02:35:32.362Z,8.17
2019-04-27T02:38:05.297Z,8.19
2019-04-27T02:40:59.786Z,8.18
2019-04-27T02:43:32.959Z,8.25
2019-04-27T02:46:06.019Z,8.23
2019-04-27T02:48:53.000Z,8.23
2019-04-27T02:51:13.554Z,8.23
2019-04-27T02:53:46.491Z,8.21
2019-04-27T02:56:20.281Z,8.21
2019-04-27T02:58:53.320Z,8.25
2019-04-27T03:01:26.329Z,8.16
2019-04-27T03:04:00.282Z,8.12
2019-04-27T03:06:34.032Z,8.13
2019-04-27T03:09:10.193Z,8.10
2019-04-27T03:11:42.147Z,8.10
2019-04-27T03:14:29.597Z,8.07
2019-04-27T03:16:50.016Z,8.07
2019-04-27T03:19:23.139Z,8.07
2019-04-27T03:21:56.099Z,8.12
2019-04-27T03:24:29.575Z,8.08
2019-04-27T03:27:03.115Z,8.05
2019-04-27T03:29:36.394Z,7.99
2019-04-27T03:32:12.759Z,7.90
2019-04-27T03:34:44.352Z,7.90
2019-04-27T03:37:20.122Z,8.03
2019-04-27T03:39:52.491Z,8.03
2019-04-27T03:42:25.749Z,7.96
2019-04-27T03:45:00.600Z,7.99
2019-04-27T03:47:33.697Z,7.98
2019-04-27T03:50:09.804Z,8.00
2019-04-27T03:52:42.305Z,8.00
2019-04-27T03:55:15.409Z,8.02
2019-04-27T03:57:49.805Z,7.97
2019-04-27T04:00:22.896Z,7.98
2019-04-27T04:02:55.850Z,7.90
2019-04-27T04:05:30.082Z,7.89
2019-04-27T04:08:03.380Z,7.91
2019-04-27T04:10:36.601Z,7.91
2019-04-27T04:13:10.798Z,7.90
2019-04-27T04:15:44.117Z,7.90
2019-04-27T04:18:19.523Z,8.09
2019-04-27T04:20:51.847Z,8.09
2019-04-27T04:23:24.762Z,8.19
2019-04-27T04:25:59.811Z,8.19
2019-04-27T04:28:32.354Z,8.26
2019-04-27T04:31:05.262Z,8.36
2019-04-27T04:33:40.283Z,8.36
2019-04-27T04:36:13.373Z,8.38
2019-04-27T04:38:46.682Z,8.32
2019-04-27T04:41:20.075Z,8.32
2019-04-27T04:43:53.510Z,8.45
2019-04-27T04:46:26.369Z,8.60
2019-04-27T04:49:00.269Z,8.68
2019-04-27T04:51:33.786Z,8.77
2019-04-27T04:54:06.679Z,8.76
2019-04-27T04:56:39.539Z,8.76
2019-04-27T04:59:12.512Z,8.73
2019-04-27T05:01:45.337Z,8.63
2019-04-27T05:04:19.372Z,8.63
2019-04-27T05:06:52.275Z,8.60
2019-04-27T05:09:25.466Z,8.60
2019-04-27T05:11:58.761Z,8.57
2019-04-27T05:14:31.785Z,8.57
2019-04-27T05:17:04.620Z,8.53
2019-04-27T05:19:38.949Z,8.68
2019-04-27T05:22:12.137Z,8.68
2019-04-27T05:24:45.048Z,8.72
2019-04-27T05:27:19.134Z,8.79
2019-04-27T05:29:52.510Z,8.86
2019-04-27T05:32:25.381Z,8.95
2019-04-27T05:34:59.631Z,8.92
2019-04-27T05:37:32.603Z,8.96
2019-04-27T05:40:05.590Z,8.95
2019-04-27T05:42:39.757Z,8.97
2019-04-27T05:45:22.790Z,8.90
2019-04-27T05:47:55.055Z,8.96
2019-04-27T05:50:37.640Z,8.91
2019-04-27T05:53:02.564Z,8.99
2019-04-27T05:55:35.472Z,8.99
2019-04-27T05:58:09.298Z,9.01
2019-04-27T06:00:42.343Z,8.95
2019-04-27T06:03:15.218Z,9.03
2019-04-27T06:05:48.946Z,9.10
2019-04-27T06:08:21.948Z,9.17
2019-04-27T06:10:54.861Z,9.28
2019-04-27T06:13:30.704Z,9.33
2019-04-27T06:16:02.368Z,9.39
2019-04-27T06:18:35.228Z,9.39
2019-04-27T06:21:09.755Z,9.40
2019-04-27T06:23:42.738Z,9.41
2019-04-27T06:26:15.654Z,9.41
2019-04-27T06:28:50.391Z,9.41
2019-04-27T06:31:23.684Z,9.41
2019-04-27T06:33:56.542Z,9.41
2019-04-27T06:36:29.519Z,9.41
2019-04-27T06:39:03.057Z,9.26
2019-04-27T06:41:36.032Z,9.14
2019-04-27T06:44:09.376Z,9.19
2019-04-27T06:46:43.525Z,9.16
2019-04-27T06:49:16.389Z,9.16
2019-04-27T06:51:49.869Z,9.22
2019-04-27T06:54:22.924Z,9.27
2019-04-27T06:56:56.401Z,9.28
2019-04-27T06:59:29.262Z,9.28
2019-04-27T07:02:02.509Z,9.32
2019-04-27T07:04:35.449Z,9.34
2019-04-27T07:07:09.761Z,9.16
2019-04-27T07:09:42.769Z,9.16
2019-04-27T07:12:15.698Z,9.09
2019-04-27T07:14:52.869Z,9.15
2019-04-27T07:17:23.530Z,9.14
2019-04-27T07:19:56.417Z,9.16
2019-04-27T07:22:29.967Z,9.31
2019-04-27T07:25:03.101Z,9.29
2019-04-27T07:27:36.018Z,9.29
2019-04-27T07:30:11.824Z,9.21
2019-04-27T07:32:44.719Z,9.22
2019-04-27T07:35:17.574Z,9.29
2019-04-27T07:37:50.510Z,9.34
2019-04-27T07:40:23.427Z,9.34
2019-04-27T07:42:56.688Z,9.32
2019-04-27T07:45:29.862Z,9.47
2019-04-27T07:48:02.845Z,9.58
2019-04-27T07:50:35.781Z,9.58
2019-04-27T07:53:08.776Z,9.56
2019-04-27T07:55:42.013Z,9.62
2019-04-27T07:58:14.989Z,9.47
2019-04-27T08:00:49.197Z,9.42
2019-04-27T08:03:22.572Z,9.47
2019-04-27T08:05:56.110Z,9.47
2019-04-27T08:08:29.314Z,9.58
2019-04-27T08:11:02.190Z,9.63
2019-04-27T08:13:35.089Z,9.54
2019-04-27T08:16:08.649Z,9.65
2019-04-27T08:18:42.028Z,9.69
2019-04-27T08:21:14.970Z,9.68
2019-04-27T08:23:49.016Z,9.65
2019-04-27T08:26:21.951Z,9.53
2019-04-27T08:28:54.972Z,9.51
2019-04-27T08:31:28.713Z,9.55
2019-04-27T08:34:02.716Z,9.77
2019-04-27T08:36:35.578Z,9.61
2019-04-27T08:39:08.974Z,9.47
2019-04-27T08:41:41.799Z,9.44
2019-04-27T08:44:14.697Z,9.29
2019-04-27T08:46:47.544Z,9.29
2019-04-27T08:49:20.559Z,9.25
2019-04-27T08:51:59.096Z,9.29
2019-04-27T08:54:29.431Z,9.21
2019-04-27T08:57:02.723Z,9.20
2019-04-27T08:59:35.657Z,9.20
2019-04-27T09:02:08.879Z,9.20
2019-04-27T09:04:41.854Z,9.17
2019-04-27T09:07:15.063Z,9.14
2019-04-27T09:09:49.704Z,9.14
2019-04-27T09:12:22.621Z,9.10
2019-04-27T09:14:55.520Z,9.07
2019-04-27T09:17:29.183Z,9.08
2019-04-27T09:20:03.703Z,9.06
2019-04-27T09:22:36.796Z,9.06
2019-04-27T09:25:09.852Z,9.09
2019-04-27T09:27:42.699Z,9.09
2019-04-27T09:30:16.136Z,9.20
2019-04-27T09:32:48.981Z,9.10
2019-04-27T09:35:22.550Z,9.03
2019-04-27T09:37:56.289Z,9.05
2019-04-27T09:40:29.605Z,9.02
2019-04-27T09:43:02.469Z,9.02
2019-04-27T09:45:37.038Z,9.18
2019-04-27T09:48:10.467Z,9.21
2019-04-27T09:50:43.460Z,9.21
2019-04-27T09:53:16.321Z,9.17
2019-04-27T09:55:49.334Z,9.17
2019-04-27T09:58:22.288Z,9.27
2019-04-27T10:00:56.813Z,9.29
2019-04-27T10:03:30.186Z,9.42
2019-04-27T10:06:03.478Z,9.51
2019-04-27T10:08:36.760Z,9.86
2019-04-27T10:11:09.690Z,9.86
2019-04-27T10:13:42.685Z,10.25
2019-04-27T10:16:15.691Z,10.73
2019-04-27T10:18:48.692Z,10.62
2019-04-27T10:21:21.631Z,10.51
2019-04-27T10:23:56.666Z,10.51
2019-04-27T10:26:29.609Z,11.02
2019-04-27T10:29:02.556Z,11.02
2019-04-27T10:31:35.643Z,10.92
2019-04-27T10:34:08.599Z,10.92
2019-04-27T10:36:42.019Z,10.65
2019-04-27T10:39:16.561Z,10.44
2019-04-27T10:41:50.178Z,10.44
2019-04-27T10:44:23.390Z,10.51
2019-04-27T10:46:56.308Z,10.51
2019-04-27T10:49:29.196Z,10.68
2019-04-27T10:52:02.210Z,10.68
2019-04-27T10:54:35.278Z,10.63
2019-04-27T10:57:08.292Z,10.63
2019-04-27T10:59:41.190Z,10.63
2019-04-27T11:02:14.315Z,10.65
2019-04-27T11:04:47.368Z,10.66
2019-04-27T11:07:20.393Z,11.07
2019-04-27T11:09:53.364Z,12.21
2019-04-27T11:12:26.411Z,12.06
2019-04-27T11:14:59.477Z,12.15
2019-04-27T11:17:32.515Z,12.99
2019-04-27T11:20:06.410Z,12.99
2019-04-27T11:22:39.471Z,14.24
2019-04-27T11:25:12.809Z,13.83
2019-04-27T11:27:45.864Z,13.84
2019-04-27T11:30:19.026Z,13.84
2019-04-27T11:32:54.596Z,13.66
2019-04-27T11:35:26.872Z,13.44
2019-04-27T11:38:01.946Z,13.44
2019-04-27T11:40:36.431Z,14.21
2019-04-27T11:43:09.684Z,14.21
2019-04-27T11:45:42.563Z,14.86
2019-04-27T11:48:16.144Z,15.80
2019-04-27T11:50:49.258Z,15.19
2019-04-27T11:53:23.172Z,14.86
2019-04-27T11:55:56.638Z,14.86
2019-04-27T11:58:29.750Z,14.71
2019-04-27T12:01:03.735Z,14.71
2019-04-27T12:03:36.720Z,14.78
2019-04-27T12:06:09.765Z,13.28
2019-04-27T12:08:42.798Z,13.04
2019-04-27T12:11:16.101Z,12.71
2019-04-27T12:13:49.065Z,12.71
2019-04-27T12:16:22.007Z,12.97
2019-04-27T12:18:56.402Z,12.72
2019-04-27T12:21:29.510Z,12.96
2019-04-27T12:24:02.605Z,13.03
2019-04-27T12:26:36.293Z,13.22
2019-04-27T12:29:09.349Z,12.98
2019-04-27T12:31:44.890Z,12.98
2019-04-27T12:34:17.345Z,13.22
2019-04-27T12:36:53.079Z,13.38
2019-04-27T12:39:28.376Z,13.56
2019-04-27T12:42:01.375Z,13.58
2019-04-27T12:44:40.381Z,13.71
2019-04-27T12:47:09.118Z,13.71
2019-04-27T12:49:42.241Z,14.61
2019-04-27T12:52:15.934Z,15.38
2019-04-27T12:54:49.040Z,16.74
2019-04-27T12:57:22.334Z,17.17
2019-04-27T12:59:56.591Z,16.92
2019-04-27T13:02:29.830Z,15.68
2019-04-27T13:05:02.928Z,16.33
2019-04-27T13:07:35.820Z,18.09
2019-04-27T13:10:09.055Z,16.94
2019-04-27T13:12:42.075Z,16.94
2019-04-27T13:15:15.683Z,17.00
2019-04-27T13:17:48.560Z,17.00
2019-04-27T13:20:21.576Z,15.03
2019-04-27T13:22:54.488Z,12.85
2019-04-27T13:25:27.530Z,12.85
2019-04-27T13:28:00.811Z,11.25
2019-04-27T13:30:35.729Z,10.52
2019-04-27T13:33:08.555Z,9.62
2019-04-27T13:35:41.515Z,9.14
2019-04-27T13:38:17.779Z,9.11
2019-04-27T13:40:49.659Z,9.11
2019-04-27T13:43:22.552Z,9.37
2019-04-27T13:45:55.589Z,9.89
2019-04-27T13:48:28.492Z,10.95
2019-04-27T13:51:01.592Z,10.95
2019-04-27T13:53:34.622Z,11.13
2019-04-27T13:56:07.692Z,11.44
2019-04-27T13:58:40.569Z,12.81
2019-04-27T14:01:13.776Z,12.81
2019-04-27T14:03:46.667Z,14.86
2019-04-27T14:06:19.751Z,14.37
2019-04-27T14:08:52.623Z,14.37
2019-04-27T14:11:25.557Z,13.61
2019-04-27T14:13:58.504Z,12.80
2019-04-27T14:16:31.420Z,12.80
2019-04-27T14:19:04.559Z,12.00
2019-04-27T14:21:37.577Z,11.11
2019-04-27T14:24:10.470Z,10.26
2019-04-27T14:26:43.428Z,10.07
2019-04-27T14:29:16.341Z,9.95
2019-04-27T14:31:49.803Z,9.95
2019-04-27T14:34:23.134Z,9.85
2019-04-27T14:36:56.129Z,9.66
2019-04-27T14:39:29.077Z,9.66
2019-04-27T14:42:02.220Z,9.76
2019-04-27T14:44:35.172Z,9.94
2019-04-27T14:47:08.240Z,9.98
2019-04-27T14:49:41.334Z,10.28
2019-04-27T14:52:14.341Z,10.97
2019-04-27T14:54:50.576Z,11.61
2019-04-27T14:57:22.832Z,12.12
2019-04-27T14:59:55.723Z,12.14
2019-04-27T15:02:28.687Z,11.29
2019-04-27T15:05:01.588Z,10.88
2019-04-27T15:07:34.567Z,10.73
2019-04-27T15:10:07.880Z,10.76
2019-04-27T15:12:40.865Z,10.87
2019-04-27T15:15:14.112Z,10.86
2019-04-27T15:17:47.154Z,10.81
2019-04-27T15:20:22.635Z,11.06
2019-04-27T15:22:56.863Z,11.13
2019-04-27T15:25:35.095Z,11.27
2019-04-27T15:28:07.386Z,11.27
2019-04-27T15:30:39.734Z,11.44
2019-04-27T15:33:16.036Z,11.51
2019-04-27T15:35:48.796Z,11.80
2019-04-27T15:38:21.839Z,11.82
2019-04-27T15:40:54.717Z,11.65
2019-04-27T15:43:30.847Z,11.74
2019-04-27T15:46:02.893Z,11.89
2019-04-27T15:48:35.928Z,11.89
2019-04-27T15:51:16.490Z,11.65
2019-04-27T15:53:45.821Z,11.35
2019-04-27T15:56:21.607Z,11.35
2019-04-27T15:58:55.798Z,10.75
2019-04-27T16:01:31.245Z,10.75
2019-04-27T16:04:07.670Z,10.58
2019-04-27T16:06:38.557Z,10.35
2019-04-27T16:09:15.983Z,10.23
2019-04-27T16:11:50.156Z,10.33
2019-04-27T16:14:21.346Z,10.16
2019-04-27T16:16:54.400Z,10.16
2019-04-27T16:19:28.691Z,9.93
2019-04-27T16:22:01.824Z,9.54
2019-04-27T16:24:34.836Z,9.27
2019-04-27T16:27:07.929Z,9.09
2019-04-27T16:29:40.850Z,9.09
2019-04-27T16:32:14.008Z,9.09
2019-04-27T16:34:47.863Z,9.10
2019-04-27T16:37:22.504Z,9.16
2019-04-27T16:39:55.590Z,9.19
2019-04-27T16:42:28.796Z,9.19
2019-04-27T16:45:02.584Z,9.26
2019-04-27T16:47:35.559Z,9.39
2019-04-27T16:50:09.157Z,9.78
2019-04-27T16:52:42.380Z,10.02
2019-04-27T16:55:17.421Z,10.00
2019-04-27T16:57:50.347Z,10.00
2019-04-27T17:00:26.484Z,9.93
2019-04-27T17:03:02.714Z,9.56
2019-04-27T17:05:34.852Z,9.56
2019-04-27T17:08:14.245Z,9.53
2019-04-27T17:10:42.738Z,9.53
2019-04-27T17:13:15.690Z,9.53
2019-04-27T17:15:53.744Z,9.60
2019-04-27T17:18:24.436Z,9.65
2019-04-27T17:21:02.691Z,9.69
2019-04-27T17:23:32.953Z,9.95
2019-04-27T17:26:20.213Z,10.02
2019-04-27T17:28:40.794Z,10.03
2019-04-27T17:31:17.892Z,10.00
2019-04-27T17:33:49.813Z,10.00
2019-04-27T17:36:23.286Z,10.01
2019-04-27T17:38:58.171Z,10.06
2019-04-27T17:41:31.160Z,10.00
2019-04-27T17:44:04.225Z,9.89
2019-04-27T17:46:38.575Z,9.87
2019-04-27T17:49:11.561Z,9.87
2019-04-27T17:51:44.557Z,9.92
2019-04-27T17:54:18.176Z,9.92
2019-04-27T17:56:52.427Z,9.94
2019-04-27T17:59:25.520Z,9.85
2019-04-27T18:02:04.483Z,9.51
2019-04-27T18:04:37.695Z,9.51
2019-04-27T18:07:08.966Z,9.36
2019-04-27T18:09:43.732Z,9.31
2019-04-27T18:12:18.291Z,9.31
2019-04-27T18:14:51.481Z,9.32
2019-04-27T18:17:24.424Z,9.20
2019-04-27T18:19:57.902Z,9.20
2019-04-27T18:22:36.408Z,9.15
2019-04-27T18:25:09.724Z,9.13
2019-04-27T18:27:43.567Z,9.11
2019-04-27T18:30:19.074Z,9.08
2019-04-27T18:32:52.453Z,9.08
2019-04-27T18:35:26.393Z,9.04
2019-04-27T18:40:32.156Z,8.96
2019-04-27T18:43:01.968Z,8.96
2019-04-27T18:45:39.725Z,8.97
2019-04-27T18:48:13.891Z,8.90
2019-04-27T18:50:48.410Z,8.81
2019-04-27T18:53:24.353Z,8.76
2019-04-27T18:56:00.725Z,8.76
2019-04-27T18:58:30.964Z,8.69
2019-04-27T19:01:04.081Z,8.69
2019-04-27T19:03:36.983Z,8.60
2019-04-27T19:06:12.551Z,8.51
2019-04-27T19:08:45.427Z,8.51
2019-04-27T19:11:18.827Z,8.48
2019-04-27T19:13:51.807Z,8.47
2019-04-27T19:16:24.836Z,8.34
2019-04-27T19:18:58.414Z,8.34
2019-04-27T19:21:31.474Z,8.28
2019-04-27T19:24:04.650Z,8.27
2019-04-27T19:26:38.331Z,8.32
2019-04-27T19:29:11.486Z,8.25
2019-04-27T19:31:44.577Z,8.25
2019-04-27T19:34:18.135Z,7.99
2019-04-27T19:36:51.405Z,7.89
2019-04-27T19:39:24.400Z,7.89
2019-04-27T19:42:01.474Z,7.82
2019-04-27T19:44:32.189Z,7.85
2019-04-27T19:47:05.940Z,7.86
2019-04-27T19:49:40.033Z,7.82
2019-04-27T19:52:13.320Z,7.79
2019-04-27T19:54:46.310Z,7.72
2019-04-27T19:57:31.145Z,7.70
2019-04-27T19:59:53.963Z,7.71
2019-04-27T20:02:28.689Z,7.76
2019-04-27T20:05:01.774Z,7.76
2019-04-27T20:07:35.094Z,7.71
2019-04-27T20:10:08.809Z,7.67
2019-04-27T20:12:41.998Z,7.59
2019-04-27T20:15:14.948Z,7.62
2019-04-27T20:17:48.065Z,7.71
2019-04-27T20:20:21.035Z,7.72
2019-04-27T20:22:54.636Z,7.77
2019-04-27T20:25:27.594Z,7.81
2019-04-27T20:28:00.960Z,7.82
2019-04-27T20:30:33.875Z,7.71
2019-04-27T20:33:07.124Z,7.71
2019-04-27T20:35:42.490Z,7.61
2019-04-27T20:38:15.615Z,7.61
2019-04-27T20:40:48.529Z,7.61
2019-04-27T20:43:24.478Z,7.58
2019-04-27T20:45:56.506Z,7.56
2019-04-27T20:48:31.261Z,7.39
2019-04-27T20:51:04.659Z,7.37
2019-04-27T20:53:37.641Z,7.37
2019-04-27T20:56:10.552Z,7.28
2019-04-27T20:58:43.601Z,7.20
2019-04-27T21:01:16.864Z,7.19
2019-04-27T21:03:51.203Z,7.15
2019-04-27T21:06:24.236Z,7.12
2019-04-27T21:08:57.332Z,7.14
2019-04-27T21:11:30.876Z,7.12
2019-04-27T21:14:03.988Z,7.09
2019-04-27T21:16:36.886Z,7.10
2019-04-27T21:19:10.925Z,7.10
2019-04-27T21:21:44.007Z,7.15
2019-04-27T21:24:16.969Z,7.17
2019-04-27T21:26:51.248Z,7.18
2019-04-27T21:29:24.562Z,7.08
2019-04-27T21:31:57.518Z,7.01
2019-04-27T21:34:31.103Z,6.99
2019-04-27T21:37:04.205Z,6.95
2019-04-27T21:39:37.303Z,6.95
2019-04-27T21:42:11.094Z,6.98
2019-04-27T21:44:44.269Z,7.02
2019-04-27T21:47:17.270Z,7.07
2019-04-27T21:49:51.764Z,7.11
2019-04-27T21:52:24.886Z,7.17
2019-04-27T21:54:57.995Z,7.17
2019-04-27T21:57:31.343Z,7.14
2019-04-27T22:00:07.246Z,7.18
2019-04-27T22:02:41.031Z,7.18
2019-04-27T22:05:14.144Z,7.24
2019-04-27T22:07:47.070Z,7.24
2019-04-27T22:10:20.940Z,7.24
2019-04-27T22:12:53.911Z,7.24
2019-04-27T22:15:27.416Z,7.21
2019-04-27T22:18:02.459Z,7.18
2019-04-27T22:20:35.837Z,7.16
2019-04-27T22:23:08.672Z,7.19
2019-04-27T22:25:42.191Z,7.17
2019-04-27T22:28:15.114Z,7.19
2019-04-27T22:30:48.009Z,7.19
2019-04-27T22:33:21.442Z,7.14
2019-04-27T22:35:54.392Z,7.07
2019-04-27T22:38:27.239Z,6.96
2019-04-27T22:41:02.077Z,6.80
2019-04-27T22:43:35.076Z,6.80
2019-04-27T22:46:07.972Z,6.71
2019-04-27T22:48:41.592Z,6.70
2019-04-27T22:51:14.652Z,6.58
2019-04-27T22:53:48.684Z,6.55
2019-04-27T22:56:22.394Z,6.45
2019-04-27T22:59:00.541Z,6.39
2019-04-27T23:01:30.287Z,6.27
2019-04-27T23:04:03.213Z,6.27
2019-04-27T23:06:36.223Z,6.20
2019-04-27T23:09:09.348Z,6.17
2019-04-27T23:11:42.778Z,6.13
2019-04-27T23:14:15.591Z,6.03
2019-04-27T23:16:48.580Z,6.02
2019-04-27T23:19:21.439Z,6.02
2019-04-27T23:21:54.924Z,6.05
2019-04-27T23:24:27.812Z,5.94
2019-04-27T23:27:03.467Z,5.94
2019-04-27T23:29:35.226Z,5.91
2019-04-27T23:32:08.073Z,5.98
2019-04-27T23:34:41.550Z,5.98
2019-04-27T23:37:14.561Z,5.96
2019-04-27T23:39:47.525Z,5.96
2019-04-27T23:42:21.700Z,6.15
2019-04-27T23:44:54.522Z,6.23
2019-04-27T23:47:27.402Z,6.20
2019-04-27T23:50:00.863Z,6.23
2019-04-27T23:52:33.931Z,6.24
2019-04-27T23:55:08.570Z,6.24
2019-04-27T23:57:41.466Z,6.25
